Time;durP1;ratioP1;P1;durP2;ratioP2;P2;SDS_P1;SDS_P2;PMS_P1;PMS_P2;Temp;Humidity;BMP_temperature;BMP_pressure;BME280_temperature;BME280_humidity;BME280_pressure;Samples;Min_cycle;Max_cycle;Signal;HPM_P1;HPM_P2
2021/10/12 00:00:40;;;;;;;6.30;5.63;;;13.00;38.90;;;;;;10461711;28;20220;-73
2021/10/12 00:05:44;;;;;;;6.30;4.90;;;13.00;38.50;;;;;;10456460;28;20274;-75
2021/10/12 00:10:47;;;;;;;5.80;5.20;;;12.90;38.90;;;;;;10456481;28;20239;-74
2021/10/12 00:15:51;;;;;;;6.53;5.83;;;12.90;38.70;;;;;;10447348;28;20228;-73
2021/10/12 00:20:55;;;;;;;6.37;5.43;;;12.80;38.90;;;;;;10452047;28;20228;-74
2021/10/12 00:25:59;;;;;;;7.40;5.63;;;12.80;39.10;;;;;;10461237;28;20237;-73
2021/10/12 00:31:03;;;;;;;7.47;5.80;;;12.80;38.90;;;;;;10448388;28;20861;-74
2021/10/12 00:36:08;;;;;;;8.93;6.70;;;12.90;39.20;;;;;;10450465;28;20233;-74
2021/10/12 00:41:11;;;;;;;6.17;5.57;;;12.90;39.20;;;;;;10450938;28;20240;-74
2021/10/12 00:46:16;;;;;;;9.23;6.43;;;12.90;38.70;;;;;;10451197;28;20329;-73
2021/10/12 00:51:20;;;;;;;8.43;6.50;;;13.00;39.30;;;;;;10454373;28;20743;-74
2021/10/12 00:56:24;;;;;;;8.27;6.77;;;13.00;39.30;;;;;;10453485;28;20588;-74
2021/10/12 01:01:27;;;;;;;8.10;6.87;;;13.00;38.80;;;;;;10455717;28;20224;-74
2021/10/12 01:06:32;;;;;;;8.33;6.47;;;13.00;38.80;;;;;;10454475;28;20224;-73
2021/10/12 01:11:36;;;;;;;7.23;6.20;;;13.10;39.40;;;;;;10454574;28;20243;-74
2021/10/12 01:16:39;;;;;;;6.80;5.70;;;13.10;39.10;;;;;;10461447;28;20229;-75
2021/10/12 01:21:47;;;;;;;7.00;5.83;;;13.10;38.90;;;;;;10447720;28;20221;-74
2021/10/12 01:26:50;;;;;;;7.37;6.60;;;13.10;39.60;;;;;;10465641;28;20231;-73
2021/10/12 01:31:53;;;;;;;7.70;6.27;;;13.20;39.00;;;;;;10451272;28;20225;-74
2021/10/12 01:36:58;;;;;;;6.80;6.20;;;13.30;39.00;;;;;;10445565;28;20893;-74
2021/10/12 01:42:01;;;;;;;7.67;6.97;;;13.30;39.30;;;;;;10454875;28;20239;-73
2021/10/12 01:47:04;;;;;;;9.37;7.30;;;13.30;38.90;;;;;;10442453;28;20221;-74
2021/10/12 01:52:12;;;;;;;9.60;7.47;;;13.40;38.90;;;;;;10455256;28;20228;-73
2021/10/12 01:57:17;;;;;;;7.43;6.70;;;13.40;39.80;;;;;;10447677;28;20230;-74
2021/10/12 02:02:20;;;;;;;8.77;7.83;;;13.30;39.00;;;;;;10448359;28;20229;-74
2021/10/12 02:07:25;;;;;;;8.20;7.40;;;13.30;39.00;;;;;;10449191;28;20234;-73
2021/10/12 02:12:30;;;;;;;10.87;7.67;;;13.40;39.40;;;;;;10448898;28;20605;-73
2021/10/12 02:17:33;;;;;;;9.40;8.40;;;13.30;39.00;;;;;;10449979;28;20231;-74
2021/10/12 02:22:38;;;;;;;8.97;8.00;;;13.40;39.30;;;;;;10446316;28;20811;-73
2021/10/12 02:27:41;;;;;;;8.67;7.70;;;13.30;39.60;;;;;;10443677;28;20237;-74
2021/10/12 02:32:44;;;;;;;10.27;8.30;;;13.30;39.20;;;;;;10450801;28;20220;-74
2021/10/12 02:37:49;;;;;;;11.90;9.23;;;13.30;39.20;;;;;;10445811;28;20244;-74
2021/10/12 02:42:52;;;;;;;10.30;8.83;;;13.20;39.50;;;;;;10448165;28;20362;-74
2021/10/12 02:47:55;;;;;;;12.17;10.37;;;13.30;39.30;;;;;;10436499;28;20239;-74
2021/10/12 02:52:59;;;;;;;13.17;10.23;;;13.20;39.20;;;;;;10446515;28;20212;-73
2021/10/12 02:58:03;;;;;;;12.63;9.80;;;13.20;39.50;;;;;;10443999;28;20216;-73
2021/10/12 03:03:09;;;;;;;12.33;11.03;;;13.20;39.20;;;;;;10452939;28;20216;-74
2021/10/12 03:08:14;;;;;;;13.73;11.93;;;13.20;39.80;;;;;;10453516;28;20697;-73
2021/10/12 03:13:17;;;;;;;14.47;12.03;;;13.20;39.70;;;;;;10455136;28;20213;-74
2021/10/12 03:18:20;;;;;;;15.67;12.37;;;13.20;39.30;;;;;;10437378;28;20705;-74
2021/10/12 03:23:25;;;;;;;15.17;12.67;;;13.20;39.30;;;;;;10443954;28;20229;-74
2021/10/12 03:28:28;;;;;;;16.67;13.00;;;13.20;39.70;;;;;;10444521;28;20719;-74
2021/10/12 03:33:32;;;;;;;15.63;13.30;;;13.10;39.50;;;;;;10453864;28;20221;-74
2021/10/12 03:38:36;;;;;;;15.33;12.63;;;13.10;39.70;;;;;;10446439;28;20426;-74
2021/10/12 03:43:39;;;;;;;15.50;11.80;;;13.10;40.00;;;;;;10449099;28;20221;-74
2021/10/12 03:48:42;;;;;;;14.07;12.07;;;13.00;39.70;;;;;;10448388;28;20232;-74
2021/10/12 03:53:47;;;;;;;14.13;12.30;;;13.00;40.50;;;;;;10439597;28;20221;-74
2021/10/12 03:58:50;;;;;;;14.73;13.23;;;13.10;40.20;;;;;;10445187;28;20225;-73
2021/10/12 04:03:54;;;;;;;15.37;13.20;;;13.10;39.90;;;;;;10444651;28;20244;-74
2021/10/12 04:08:58;;;;;;;16.00;13.80;;;13.10;39.90;;;;;;10447131;28;20735;-73
2021/10/12 04:14:02;;;;;;;16.07;14.37;;;13.10;40.20;;;;;;10447064;28;20219;-74
2021/10/12 04:19:05;;;;;;;16.80;14.13;;;13.10;40.00;;;;;;10455225;28;20224;-74
2021/10/12 04:24:10;;;;;;;17.37;13.70;;;13.10;39.90;;;;;;10442926;28;20225;-74
2021/10/12 04:29:13;;;;;;;18.77;14.23;;;13.10;40.20;;;;;;10442608;28;20228;-74
2021/10/12 04:34:16;;;;;;;17.97;15.53;;;13.10;40.00;;;;;;10440644;28;20312;-74
2021/10/12 04:39:21;;;;;;;17.80;15.67;;;13.10;40.20;;;;;;10441894;28;20240;-73
2021/10/12 04:44:24;;;;;;;18.93;15.67;;;13.10;40.40;;;;;;10456194;28;20254;-73
2021/10/12 04:49:28;;;;;;;20.50;17.20;;;13.10;40.30;;;;;;10453339;28;20229;-73
2021/10/12 04:54:32;;;;;;;19.83;17.27;;;13.10;40.20;;;;;;10453830;28;20232;-74
2021/10/12 04:59:36;;;;;;;18.80;16.80;;;13.10;40.60;;;;;;10450201;28;20225;-74
2021/10/12 05:04:39;;;;;;;18.93;16.27;;;13.10;40.20;;;;;;10448826;28;20236;-74
2021/10/12 05:09:43;;;;;;;20.60;15.67;;;13.10;40.10;;;;;;10455789;28;20227;-73
2021/10/12 05:14:47;;;;;;;18.93;15.93;;;13.10;40.70;;;;;;10449553;28;20229;-73
2021/10/12 05:19:50;;;;;;;18.53;16.40;;;13.10;40.30;;;;;;10446725;28;20316;-73
2021/10/12 05:24:55;;;;;;;16.37;14.67;;;13.10;40.30;;;;;;10442260;28;20233;-73
2021/10/12 05:29:58;;;;;;;18.83;15.80;;;13.10;40.60;;;;;;10454163;28;20221;-72
2021/10/12 05:35:01;;;;;;;19.33;16.20;;;13.10;40.40;;;;;;10449991;28;20245;-72
2021/10/12 05:40:07;;;;;;;17.40;15.60;;;13.10;40.30;;;;;;10445676;28;20228;-73
2021/10/12 05:45:10;;;;;;;19.53;15.90;;;13.20;40.80;;;;;;10443864;28;20232;-73
2021/10/12 05:50:13;;;;;;;20.47;16.03;;;13.10;40.20;;;;;;10441624;28;20221;-73
2021/10/12 05:55:23;;;;;;;15.97;14.23;;;13.10;40.20;;;;;;10443765;28;20229;-77
2021/10/12 06:00:26;;;;;;;20.13;16.07;;;13.10;41.30;;;;;;10448744;28;20232;-75
2021/10/12 06:05:29;;;;;;;18.17;15.90;;;13.10;40.50;;;;;;10453953;28;20282;-76
2021/10/12 06:10:35;;;;;;;19.83;15.57;;;13.00;40.40;;;;;;10445906;28;20228;-76
2021/10/12 06:15:43;;;;;;;21.07;16.17;;;13.00;40.90;;;;;;10458388;28;20546;-75
2021/10/12 06:20:47;;;;;;;19.20;15.87;;;13.00;41.30;;;;;;10430369;28;20225;-76
2021/10/12 06:25:52;;;;;;;21.07;16.60;;;12.90;40.80;;;;;;10455136;28;20704;-75
2021/10/12 06:30:55;;;;;;;17.87;15.93;;;12.90;41.40;;;;;;10453600;28;20235;-75
2021/10/12 06:35:59;;;;;;;19.10;15.77;;;12.90;41.00;;;;;;10460837;28;20712;-75
2021/10/12 06:41:03;;;;;;;18.33;16.27;;;12.90;41.10;;;;;;10453879;28;20232;-75
2021/10/12 06:46:06;;;;;;;18.17;15.57;;;12.90;41.60;;;;;;10434894;28;20320;-75
2021/10/12 06:51:10;;;;;;;20.60;16.43;;;13.00;41.30;;;;;;10460273;28;20227;-75
2021/10/12 06:56:34;;;;;;;18.23;16.17;;;13.00;41.20;;;;;;10457758;28;20768;-75
2021/10/12 07:01:37;;;;;;;18.10;15.53;;;13.00;41.70;;;;;;10454572;28;20233;-75
2021/10/12 07:06:41;;;;;;;17.50;15.37;;;13.10;41.30;;;;;;10451007;28;20279;-75
2021/10/12 07:11:46;;;;;;;17.33;14.63;;;13.10;41.40;;;;;;10447488;28;20277;-75
2021/10/12 07:16:49;;;;;;;18.33;15.00;;;13.10;41.90;;;;;;10462422;28;20232;-75
2021/10/12 07:21:52;;;;;;;17.63;15.67;;;13.10;41.30;;;;;;10449448;28;20304;-75
2021/10/12 07:26:57;;;;;;;18.53;16.50;;;13.10;41.50;;;;;;10448824;28;20231;-75
2021/10/12 07:32:19;;;;;;;16.97;15.20;;;13.20;42.10;;;;;;10463063;28;20224;-75
2021/10/12 07:37:23;;;;;;;18.40;16.17;;;13.30;41.80;;;;;;10444705;28;20232;-74
2021/10/12 07:42:27;;;;;;;19.93;16.97;;;13.20;41.50;;;;;;10453385;28;20697;-75
2021/10/12 07:47:30;;;;;;;23.57;17.30;;;13.20;41.80;;;;;;10455120;28;20239;-74
2021/10/12 07:52:35;;;;;;;20.90;17.87;;;13.20;41.80;;;;;;10460895;28;20226;-75
2021/10/12 07:57:40;;;;;;;20.03;17.17;;;13.10;41.80;;;;;;10442141;28;20258;-75
2021/10/12 08:02:43;;;;;;;19.07;17.07;;;13.00;42.40;;;;;;10443371;28;20736;-75
2021/10/12 08:07:46;;;;;;;19.37;16.30;;;13.10;42.00;;;;;;10471195;28;20232;-75
2021/10/12 08:13:09;;;;;;;17.17;15.03;;;13.10;42.10;;;;;;10459746;28;20237;-74
2021/10/12 08:18:12;;;;;;;15.97;14.27;;;13.10;42.70;;;;;;10470236;28;20233;-75
2021/10/12 08:23:15;;;;;;;17.60;14.77;;;13.20;42.40;;;;;;10466197;28;20244;-75
2021/10/12 08:28:20;;;;;;;16.33;14.67;;;13.20;42.30;;;;;;10444012;28;20704;-74
2021/10/12 08:33:23;;;;;;;19.73;15.87;;;13.20;42.70;;;;;;10462093;28;20235;-74
2021/10/12 08:38:26;;;;;;;17.37;15.53;;;13.20;42.30;;;;;;10445958;28;20236;-74
2021/10/12 08:43:32;;;;;;;17.43;15.63;;;13.20;42.60;;;;;;10460270;28;20233;-74
2021/10/12 08:48:35;;;;;;;18.43;16.03;;;13.20;42.70;;;;;;10452045;28;20232;-74
2021/10/12 08:53:39;;;;;;;15.30;13.70;;;13.30;42.50;;;;;;10444571;28;20248;-76
2021/10/12 08:58:43;;;;;;;15.67;13.23;;;13.30;42.60;;;;;;10449408;28;20235;-74
2021/10/12 09:03:52;;;;;;;12.83;11.53;;;13.30;42.80;;;;;;10463181;28;20237;-76
2021/10/12 09:09:02;;;;;;;12.03;9.97;;;13.30;42.80;;;;;;10449087;28;20260;-74
2021/10/12 09:14:07;;;;;;;11.37;9.47;;;13.40;42.90;;;;;;10442176;28;20217;-75
2021/10/12 09:19:13;;;;;;;13.00;10.93;;;13.30;42.80;;;;;;10454859;28;20237;-74
2021/10/12 09:24:17;;;;;;;11.60;9.93;;;13.20;42.70;;;;;;10458374;28;20647;-74
2021/10/12 09:29:24;;;;;;;9.70;8.70;;;13.20;42.70;;;;;;10445659;28;20228;-75
2021/10/12 09:34:30;;;;;;;8.83;7.93;;;13.20;42.70;;;;;;10465359;28;20269;-75
2021/10/12 09:39:35;;;;;;;8.40;7.50;;;13.20;42.70;;;;;;10458015;28;20225;-75
2021/10/12 09:44:51;;;;;;;7.37;6.53;;;13.20;42.70;;;;;;10448193;28;20880;-74
2021/10/12 09:50:08;;;;;;;6.97;5.83;;;13.20;42.90;;;;;;10452278;28;20217;-75
2021/10/12 09:55:13;;;;;;;8.00;5.10;;;13.20;43.30;;;;;;10450768;28;20222;-74
2021/10/12 10:00:18;;;;;;;5.40;3.47;;;13.20;42.70;;;;;;10455320;28;20228;-75
2021/10/12 10:05:21;;;;;;;3.60;3.30;;;13.30;42.80;;;;;;10454076;28;20231;-75
2021/10/12 10:10:25;;;;;;;3.67;3.03;;;13.30;42.40;;;;;;10459250;28;20224;-75
2021/10/12 10:15:29;;;;;;;6.20;3.10;;;13.40;42.40;;;;;;10451339;28;20237;-75
2021/10/12 10:20:33;;;;;;;4.60;2.97;;;13.40;42.90;;;;;;10445027;28;20259;-75
2021/10/12 10:25:40;;;;;;;3.27;2.83;;;13.40;42.90;;;;;;10462623;28;20606;-75
2021/10/12 10:30:46;;;;;;;3.20;2.90;;;13.50;42.30;;;;;;10452716;28;20583;-75
2021/10/12 10:35:57;;;;;;;3.23;2.50;;;13.60;42.40;;;;;;10442646;28;20279;-75
2021/10/12 10:41:36;;;;;;;3.20;2.90;;;13.60;41.90;;;;;;10450803;28;20744;-75
2021/10/12 10:46:44;;;;;;;5.07;3.90;;;13.70;42.20;;;;;;10456169;28;20221;-76
2021/10/12 10:51:58;;;;;;;3.20;2.90;;;13.70;42.00;;;;;;10436059;28;20221;-74
2021/10/12 10:57:11;;;;;;;4.10;3.43;;;13.80;42.30;;;;;;10429705;28;20260;-74
2021/10/12 11:02:45;;;;;;;4.13;3.53;;;13.80;42.00;;;;;;10430815;28;20224;-74
2021/10/12 11:07:49;;;;;;;4.73;3.77;;;13.80;42.30;;;;;;10436967;28;20263;-74
2021/10/12 11:12:52;;;;;;;4.37;3.70;;;13.80;41.80;;;;;;10425176;28;20822;-75
2021/10/12 11:18:10;;;;;;;4.50;3.80;;;13.90;41.50;;;;;;10425065;28;20233;-75
2021/10/12 11:23:15;;;;;;;3.70;3.40;;;13.80;41.70;;;;;;10420340;28;20248;-74
2021/10/12 11:28:24;;;;;;;3.60;3.30;;;13.80;41.40;;;;;;10431738;28;20227;-74
2021/10/12 11:33:33;;;;;;;4.73;3.30;;;13.80;41.90;;;;;;10430375;28;20224;-74
2021/10/12 11:38:39;;;;;;;4.13;3.70;;;13.80;42.10;;;;;;10438449;28;20856;-76
2021/10/12 11:43:44;;;;;;;4.60;4.13;;;13.80;41.80;;;;;;10434180;28;20243;-76
2021/10/12 11:48:49;;;;;;;5.43;4.10;;;13.80;41.80;;;;;;10446980;28;20220;-76
2021/10/12 11:53:53;;;;;;;5.07;4.10;;;13.80;41.90;;;;;;10448658;28;20224;-76
2021/10/12 11:58:59;;;;;;;4.63;4.23;;;13.80;41.80;;;;;;10457545;28;20248;-75
2021/10/12 12:04:05;;;;;;;7.67;5.70;;;13.80;42.00;;;;;;10454904;28;20240;-76
2021/10/12 12:09:17;;;;;;;6.13;4.50;;;13.80;42.50;;;;;;10454032;28;20244;-76
2021/10/12 12:14:24;;;;;;;6.50;5.33;;;13.80;42.30;;;;;;10442417;28;20225;-75
2021/10/12 12:19:28;;;;;;;5.20;4.50;;;13.80;42.30;;;;;;10441984;28;20719;-74
2021/10/12 12:24:32;;;;;;;4.90;4.10;;;13.80;42.20;;;;;;10445315;28;20233;-75
2021/10/12 12:29:35;;;;;;;5.30;4.43;;;13.90;42.10;;;;;;10448104;28;20239;-75
2021/10/12 12:34:41;;;;;;;5.07;4.57;;;13.90;41.90;;;;;;10444561;28;20256;-74
2021/10/12 12:39:45;;;;;;;5.40;4.40;;;13.90;42.10;;;;;;10442737;28;20224;-75
2021/10/12 12:45:09;;;;;;;5.03;4.17;;;13.90;41.80;;;;;;10450045;28;20229;-75
2021/10/12 12:50:15;;;;;;;5.83;4.30;;;13.90;41.80;;;;;;10450488;28;20228;-75
2021/10/12 12:55:32;;;;;;;4.93;4.30;;;13.90;41.60;;;;;;10456069;28;20739;-76
2021/10/12 13:00:36;;;;;;;6.30;3.83;;;13.90;41.90;;;;;;10457117;28;20224;-75
2021/10/12 13:05:40;;;;;;;4.77;4.30;;;13.90;41.60;;;;;;10445435;28;20241;-75
2021/10/12 13:10:43;;;;;;;4.00;3.43;;;14.00;41.50;;;;;;10462505;28;20947;-75
2021/10/12 13:15:46;;;;;;;3.83;3.53;;;14.00;41.30;;;;;;10461840;28;20603;-75
2021/10/12 13:20:51;;;;;;;4.50;4.10;;;14.00;41.20;;;;;;10455024;28;20283;-75
2021/10/12 13:25:54;;;;;;;4.17;3.83;;;14.00;41.30;;;;;;10449717;28;20220;-76
2021/10/12 13:30:57;;;;;;;3.93;3.50;;;14.00;41.30;;;;;;10447038;28;20231;-75
2021/10/12 13:36:02;;;;;;;5.10;3.20;;;14.10;41.20;;;;;;10458980;28;20629;-75
2021/10/12 13:41:05;;;;;;;3.43;3.10;;;14.10;41.60;;;;;;10453013;28;20701;-76
2021/10/12 13:46:08;;;;;;;3.17;2.83;;;14.10;40.90;;;;;;10458577;28;20238;-75
2021/10/12 13:51:13;;;;;;;6.07;3.27;;;14.10;40.80;;;;;;10449263;28;20593;-75
2021/10/12 13:56:17;;;;;;;3.57;3.27;;;14.10;40.70;;;;;;10451195;28;20221;-75
2021/10/12 14:01:22;;;;;;;3.27;2.97;;;14.10;40.80;;;;;;10463031;28;20220;-75
2021/10/12 14:06:27;;;;;;;3.40;3.10;;;14.20;40.80;;;;;;10451201;28;20228;-75
2021/10/12 14:11:30;;;;;;;3.33;3.03;;;14.20;40.70;;;;;;10449044;28;20763;-75
2021/10/12 14:16:34;;;;;;;3.20;2.90;;;14.20;40.70;;;;;;10448158;28;20229;-75
2021/10/12 14:21:38;;;;;;;3.70;3.27;;;14.20;40.80;;;;;;10453401;28;20221;-76
2021/10/12 14:26:42;;;;;;;4.70;3.97;;;14.30;40.70;;;;;;10440123;28;20232;-75
2021/10/12 14:31:45;;;;;;;4.50;3.60;;;14.30;40.50;;;;;;10433078;28;20217;-75
2021/10/12 14:36:50;;;;;;;4.10;3.70;;;14.30;40.80;;;;;;10441642;28;20228;-76
2021/10/12 14:41:54;;;;;;;3.90;3.57;;;14.30;40.50;;;;;;10446064;28;20959;-76
2021/10/12 14:46:59;;;;;;;3.83;3.40;;;14.30;40.50;;;;;;10433532;28;20367;-75
2021/10/12 14:52:04;;;;;;;5.37;3.70;;;14.30;40.70;;;;;;10449175;28;20308;-75
2021/10/12 14:57:07;;;;;;;3.27;2.97;;;14.30;40.70;;;;;;10445264;28;20221;-76
2021/10/12 15:02:10;;;;;;;3.87;3.57;;;14.30;40.80;;;;;;10431791;28;20260;-75
2021/10/12 15:07:15;;;;;;;4.13;3.70;;;14.30;40.70;;;;;;10429594;28;20229;-74
2021/10/12 15:12:19;;;;;;;4.67;3.30;;;14.30;40.70;;;;;;10436336;28;20315;-75
2021/10/12 15:17:24;;;;;;;5.83;4.33;;;14.30;40.60;;;;;;10435008;28;20324;-76
2021/10/12 15:22:28;;;;;;;5.10;4.50;;;14.30;40.60;;;;;;10425579;28;20731;-75
2021/10/12 15:27:31;;;;;;;8.27;6.10;;;14.20;40.70;;;;;;10429400;28;20232;-76
2021/10/12 15:32:35;;;;;;;5.53;4.77;;;14.20;40.80;;;;;;10430903;28;20221;-75
2021/10/12 15:37:39;;;;;;;5.10;4.10;;;14.20;40.80;;;;;;10431797;28;20236;-75
2021/10/12 15:42:43;;;;;;;7.40;4.20;;;14.20;40.80;;;;;;10420256;28;20664;-75
2021/10/12 15:47:46;;;;;;;5.70;4.30;;;14.20;40.60;;;;;;10435051;28;20228;-76
2021/10/12 15:52:51;;;;;;;4.60;4.20;;;14.20;40.80;;;;;;10440355;28;20708;-76
2021/10/12 15:57:54;;;;;;;4.70;4.20;;;14.10;40.80;;;;;;10442506;28;20269;-79
2021/10/12 16:02:57;;;;;;;5.07;4.57;;;14.10;40.80;;;;;;10433218;28;20291;-76
2021/10/12 16:08:02;;;;;;;6.40;4.27;;;14.10;40.90;;;;;;10443101;28;20228;-76
2021/10/12 16:13:05;;;;;;;5.30;4.80;;;14.10;40.90;;;;;;10434860;28;20227;-77
2021/10/12 16:23:31;;;;;;;4.00;3.60;;;14.10;40.80;;;;;;10448451;28;20247;-77
2021/10/12 16:28:35;;;;;;;4.30;3.43;;;14.10;40.80;;;;;;10446702;28;20234;-77
2021/10/12 16:33:38;;;;;;;4.17;3.40;;;14.10;41.10;;;;;;10433968;28;20232;-77
2021/10/12 16:38:43;;;;;;;3.87;3.43;;;14.10;41.00;;;;;;10454438;28;20340;-76
2021/10/12 16:43:47;;;;;;;3.87;2.90;;;14.10;41.00;;;;;;10442218;28;20229;-76
2021/10/12 16:48:50;;;;;;;3.40;3.10;;;14.10;41.00;;;;;;10446321;28;20566;-76
2021/10/12 16:53:54;;;;;;;3.43;3.10;;;14.10;41.00;;;;;;10441075;28;20892;-76
2021/10/12 16:59:13;;;;;;;5.10;3.17;;;14.10;40.90;;;;;;10429423;28;20765;-75
2021/10/12 17:04:16;;;;;;;4.23;3.07;;;14.10;40.80;;;;;;10431502;28;20228;-74
2021/10/12 17:09:22;;;;;;;3.90;3.30;;;14.10;40.80;;;;;;10435019;28;20248;-75
2021/10/12 17:14:25;;;;;;;3.70;3.30;;;14.10;40.80;;;;;;10433765;28;20745;-74
2021/10/12 17:19:29;;;;;;;4.20;2.97;;;14.00;40.90;;;;;;10439579;28;20307;-74
2021/10/12 17:24:34;;;;;;;3.90;3.50;;;14.00;40.90;;;;;;10438289;28;20236;-74
2021/10/12 17:29:38;;;;;;;6.27;3.47;;;14.00;41.10;;;;;;10436751;28;20260;-74
2021/10/12 17:34:41;;;;;;;4.97;3.80;;;13.90;41.00;;;;;;10438074;28;20764;-75
2021/10/12 17:39:46;;;;;;;17.87;12.03;;;13.90;41.10;;;;;;10451676;28;20229;-75
2021/10/12 17:44:49;;;;;;;5.87;4.30;;;13.90;41.20;;;;;;10447411;28;21174;-74
2021/10/12 17:49:52;;;;;;;5.43;4.80;;;13.80;41.10;;;;;;10446172;28;20228;-74
2021/10/12 17:55:02;;;;;;;4.40;4.00;;;13.70;41.50;;;;;;10450120;28;20237;-74
2021/10/12 18:00:06;;;;;;;4.97;3.83;;;13.70;42.10;;;;;;10448229;28;20617;-77
2021/10/12 18:05:11;;;;;;;6.60;4.93;;;13.60;41.60;;;;;;10448592;28;20609;-74
2021/10/12 18:10:17;;;;;;;5.83;4.40;;;13.70;41.80;;;;;;10439153;28;20235;-74
2021/10/12 18:15:20;;;;;;;6.80;4.47;;;13.60;42.10;;;;;;10448783;28;20229;-74
2021/10/12 18:20:23;;;;;;;4.73;4.23;;;13.60;41.80;;;;;;10441725;28;20232;-74
2021/10/12 18:25:28;;;;;;;5.30;4.50;;;13.50;41.90;;;;;;10440772;28;20690;-75
2021/10/12 18:30:31;;;;;;;5.90;4.50;;;13.50;42.40;;;;;;10439845;28;20592;-73
2021/10/12 18:35:35;;;;;;;6.63;4.70;;;13.40;42.20;;;;;;10440761;28;20225;-73
2021/10/12 18:40:40;;;;;;;5.77;4.40;;;13.40;42.60;;;;;;10439512;28;20220;-74
2021/10/12 18:45:43;;;;;;;5.60;4.83;;;13.30;42.80;;;;;;10439252;28;20233;-74
2021/10/12 18:50:46;;;;;;;6.73;5.07;;;13.20;42.70;;;;;;10442836;28;20661;-74
2021/10/12 18:55:51;;;;;;;6.03;4.43;;;13.10;42.70;;;;;;10443859;28;20248;-74
2021/10/12 19:00:55;;;;;;;6.53;4.80;;;13.00;42.60;;;;;;10438161;28;20213;-74
2021/10/12 19:05:58;;;;;;;7.27;4.57;;;12.90;42.50;;;;;;10447255;28;20225;-74
2021/10/12 19:11:04;;;;;;;7.50;4.70;;;12.90;42.60;;;;;;10447401;28;20778;-73
2021/10/12 19:16:09;;;;;;;6.37;4.63;;;12.90;43.30;;;;;;10441267;28;20223;-74
2021/10/12 19:21:13;;;;;;;4.83;4.37;;;12.90;43.20;;;;;;10438905;28;20643;-74
2021/10/12 19:26:18;;;;;;;4.67;4.27;;;12.90;42.90;;;;;;10430158;28;20236;-75
2021/10/12 19:31:22;;;;;;;6.30;4.63;;;12.90;43.50;;;;;;10430938;28;20239;-74
2021/10/12 19:36:26;;;;;;;6.43;4.60;;;12.90;43.00;;;;;;10435863;28;20300;-73
2021/10/12 19:41:32;;;;;;;4.97;4.53;;;12.90;43.20;;;;;;10432985;28;20243;-74
2021/10/12 19:46:36;;;;;;;4.83;4.40;;;12.90;43.40;;;;;;10435055;28;20236;-75
2021/10/12 19:51:39;;;;;;;5.10;4.60;;;12.90;43.00;;;;;;10423977;28;20247;-75
2021/10/12 19:56:45;;;;;;;5.07;4.30;;;12.90;43.10;;;;;;10427332;28;20235;-75
2021/10/12 20:07:10;;;;;;;5.47;4.70;;;12.80;43.10;;;;;;10437739;28;20233;-75
2021/10/12 20:12:14;;;;;;;5.47;5.00;;;12.90;43.20;;;;;;10445801;28;20595;-75
2021/10/12 20:17:18;;;;;;;6.00;5.40;;;12.80;43.80;;;;;;10439791;28;20617;-74
2021/10/12 20:22:21;;;;;;;5.53;5.03;;;12.80;43.30;;;;;;10446851;28;20698;-74
2021/10/12 20:27:25;;;;;;;6.67;5.63;;;12.70;43.60;;;;;;10447949;28;20307;-74
2021/10/12 20:32:30;;;;;;;5.00;4.60;;;12.70;44.30;;;;;;10445933;28;20592;-74
2021/10/12 20:37:33;;;;;;;4.57;4.17;;;12.70;44.20;;;;;;10454003;28;20236;-74
2021/10/12 20:42:38;;;;;;;3.10;2.90;;;12.70;44.00;;;;;;10453237;28;20228;-74
2021/10/12 20:47:42;;;;;;;3.20;3.00;;;12.70;44.20;;;;;;10454869;28;20232;-74
2021/10/12 20:52:45;;;;;;;5.33;3.43;;;12.60;43.80;;;;;;10444156;28;20224;-74
2021/10/12 20:57:50;;;;;;;2.93;2.60;;;12.60;44.00;;;;;;10452332;28;20239;-74
2021/10/12 21:02:53;;;;;;;2.33;2.13;;;12.50;44.20;;;;;;10454355;28;20228;-74
2021/10/12 21:07:57;;;;;;;2.43;2.20;;;12.50;43.80;;;;;;10443770;28;20229;-74
2021/10/12 21:13:01;;;;;;;2.13;2.03;;;12.40;44.60;;;;;;10451464;28;20232;-74
2021/10/12 21:18:04;;;;;;;1.87;1.77;;;12.40;44.10;;;;;;10434090;28;20225;-74
2021/10/12 21:23:08;;;;;;;2.40;2.20;;;12.40;43.70;;;;;;10452237;28;20220;-74
2021/10/12 21:28:13;;;;;;;3.20;2.00;;;12.40;43.70;;;;;;10448669;28;20247;-74
2021/10/12 21:33:17;;;;;;;1.90;1.73;;;12.50;43.80;;;;;;10446453;28;20235;-74
2021/10/12 21:38:21;;;;;;;1.60;1.50;;;12.50;43.40;;;;;;10435367;28;20229;-74
2021/10/12 21:43:25;;;;;;;1.80;1.50;;;12.50;43.40;;;;;;10448035;28;20263;-74
2021/10/12 21:48:28;;;;;;;2.83;1.67;;;12.50;43.70;;;;;;10447878;28;20220;-74
2021/10/12 21:53:32;;;;;;;2.10;1.90;;;12.40;43.40;;;;;;10442670;28;20296;-75
2021/10/12 21:58:36;;;;;;;2.07;1.90;;;12.40;43.60;;;;;;10449008;28;20233;-74
2021/10/12 22:03:41;;;;;;;1.70;1.60;;;12.30;43.90;;;;;;10449060;28;21004;-74
2021/10/12 22:08:44;;;;;;;1.80;1.70;;;12.30;43.70;;;;;;10453206;28;20269;-74
2021/10/12 22:13:49;;;;;;;2.37;1.80;;;12.30;43.40;;;;;;10448092;28;20224;-75
2021/10/12 22:18:52;;;;;;;2.00;1.50;;;12.30;43.80;;;;;;10442393;28;20608;-74
2021/10/12 22:23:55;;;;;;;1.60;1.50;;;12.30;43.70;;;;;;10460741;28;20217;-74
2021/10/12 22:29:00;;;;;;;1.50;1.40;;;12.30;43.60;;;;;;10449818;28;20608;-74
2021/10/12 22:34:03;;;;;;;1.10;1.10;;;12.30;43.90;;;;;;10436001;28;20213;-74
2021/10/12 22:39:06;;;;;;;1.47;1.37;;;12.20;43.60;;;;;;10445811;28;20239;-74
2021/10/12 22:44:11;;;;;;;1.60;1.50;;;12.30;43.70;;;;;;10452481;28;20228;-74
2021/10/12 22:49:15;;;;;;;1.60;1.50;;;12.20;44.00;;;;;;10443343;28;20232;-74
2021/10/12 22:54:18;;;;;;;1.83;1.73;;;12.20;43.70;;;;;;10441575;28;20222;-74
2021/10/12 22:59:23;;;;;;;1.90;1.80;;;12.20;43.70;;;;;;10444104;28;20235;-74
2021/10/12 23:04:26;;;;;;;1.83;1.73;;;12.10;44.10;;;;;;10451292;28;20229;-74
2021/10/12 23:09:29;;;;;;;1.97;1.87;;;12.10;43.80;;;;;;10443018;28;20594;-74
2021/10/12 23:14:37;;;;;;;2.23;2.03;;;12.10;43.80;;;;;;10435883;28;20730;-74
2021/10/12 23:19:40;;;;;;;1.87;1.77;;;12.00;44.30;;;;;;10448166;28;20231;-74
2021/10/12 23:24:43;;;;;;;1.80;1.70;;;12.00;44.10;;;;;;10442115;28;20288;-74
2021/10/12 23:29:48;;;;;;;2.43;1.80;;;12.00;44.30;;;;;;10444112;28;20229;-74
2021/10/12 23:34:51;;;;;;;2.17;2.07;;;11.90;44.80;;;;;;10454607;28;20244;-74
2021/10/12 23:39:54;;;;;;;2.10;2.00;;;11.90;44.60;;;;;;10455971;28;20250;-74
2021/10/12 23:44:59;;;;;;;2.60;1.83;;;11.90;44.70;;;;;;10450493;28;20231;-74
2021/10/12 23:50:02;;;;;;;2.50;2.00;;;11.90;45.00;;;;;;10445158;28;20235;-74
2021/10/12 23:55:08;;;;;;;1.93;1.83;;;11.80;44.70;;;;;;10444615;28;20225;-74
